createdAt,value
2023-01-15T00:01:55.120Z,100.00
2023-01-15T06:51:38.091Z,100.00
2023-01-15T06:54:05.971Z,100.00
2023-01-15T06:56:34.774Z,100.00
2023-01-15T06:59:03.183Z,100.00
2023-01-15T07:01:32.958Z,100.00
2023-01-15T07:04:00.065Z,100.00
2023-01-15T07:06:27.805Z,100.00
2023-01-15T07:08:56.429Z,100.00
2023-01-15T07:11:25.659Z,100.00
2023-01-15T07:14:05.447Z,100.00
2023-01-15T07:16:40.801Z,100.00
2023-01-15T07:19:14.602Z,100.00
2023-01-15T07:21:45.118Z,100.00
2023-01-15T07:24:23.495Z,100.00
2023-01-15T07:26:53.931Z,100.00
2023-01-15T07:29:25.102Z,100.00
2023-01-15T07:31:56.800Z,100.00
2023-01-15T07:34:32.250Z,100.00
2023-01-15T07:37:08.575Z,100.00
2023-01-15T07:39:38.196Z,100.00
2023-01-15T07:42:33.914Z,100.00
2023-01-15T07:48:40.583Z,100.00
2023-01-15T07:51:50.968Z,100.00
2023-01-15T07:54:20.567Z,100.00
2023-01-15T07:56:52.232Z,100.00
2023-01-15T07:59:33.596Z,100.00
2023-01-15T08:02:06.074Z,100.00
2023-01-15T08:04:37.516Z,100.00
2023-01-15T08:07:07.785Z,100.00
2023-01-15T08:09:37.209Z,100.00
2023-01-15T08:12:24.215Z,100.00
2023-01-15T08:18:12.194Z,100.00
2023-01-15T08:20:42.087Z,100.00
2023-01-15T08:23:11.662Z,100.00
2023-01-15T08:25:42.590Z,100.00
2023-01-15T08:28:18.293Z,100.00
2023-01-15T08:30:54.640Z,100.00
2023-01-15T08:33:23.133Z,100.00
2023-01-15T08:35:50.483Z,99.99
2023-01-15T08:38:20.618Z,99.96
2023-01-15T08:41:00.391Z,99.90
2023-01-15T08:43:37.287Z,99.85
2023-01-15T08:46:15.415Z,99.63
2023-01-15T08:48:42.714Z,99.69
2023-01-15T08:51:21.625Z,99.66
2023-01-15T08:53:50.828Z,99.57
2023-01-15T08:56:19.660Z,99.39
2023-01-15T08:58:51.447Z,99.21
2023-01-15T09:01:24.637Z,99.08
2023-01-15T09:04:03.275Z,98.70
2023-01-15T09:06:33.246Z,98.37
2023-01-15T09:09:05.816Z,98.52
2023-01-15T09:11:37.437Z,98.35
2023-01-15T09:14:09.013Z,98.39
2023-01-15T09:16:58.318Z,98.33
2023-01-15T09:19:27.593Z,98.49
2023-01-15T09:21:56.176Z,98.26
2023-01-15T09:24:23.772Z,98.25
2023-01-15T09:26:53.585Z,98.23
2023-01-15T09:29:23.388Z,98.04
2023-01-15T09:31:55.739Z,98.08
2023-01-15T09:34:25.110Z,98.40
2023-01-15T09:36:59.260Z,98.40
2023-01-15T09:39:30.743Z,98.42
2023-01-15T09:42:11.294Z,98.25
2023-01-15T09:44:51.167Z,98.30
2023-01-15T09:47:29.799Z,98.11
2023-01-15T09:50:06.738Z,98.32
2023-01-15T09:52:41.010Z,98.17
2023-01-15T09:55:33.660Z,98.24
2023-01-15T17:22:57.288Z,100.00
2023-01-15T17:25:53.149Z,100.00
2023-01-15T17:28:27.997Z,100.00
2023-01-15T17:31:02.345Z,100.00
2023-01-15T17:33:50.865Z,100.00
2023-01-15T17:36:31.460Z,100.00
2023-01-15T17:39:05.481Z,100.00
2023-01-15T17:41:39.016Z,100.00
2023-01-15T17:44:09.137Z,100.00
2023-01-15T17:46:38.278Z,100.00
2023-01-15T17:49:08.120Z,100.00
2023-01-15T17:51:37.211Z,100.00
2023-01-15T17:54:05.833Z,100.00
2023-01-15T17:56:55.312Z,100.00
2023-01-15T17:59:52.696Z,100.00
2023-01-15T18:02:45.931Z,100.00
2023-01-15T18:05:32.085Z,100.00
2023-01-15T18:08:05.577Z,100.00
2023-01-15T18:10:39.827Z,100.00
2023-01-15T18:13:10.332Z,100.00
2023-01-15T18:15:48.776Z,100.00
2023-01-15T18:18:19.916Z,100.00
2023-01-15T18:20:52.511Z,100.00
2023-01-15T18:23:22.673Z,100.00
2023-01-15T18:25:51.770Z,100.00
2023-01-15T18:28:19.651Z,100.00
2023-01-15T18:30:48.433Z,100.00
2023-01-15T18:33:16.313Z,100.00
2023-01-15T18:36:01.823Z,100.00
2023-01-15T18:38:39.673Z,100.00
2023-01-15T18:44:37.686Z,100.00
2023-01-15T18:47:13.205Z,100.00
2023-01-15T18:50:06.840Z,100.00
2023-01-15T18:52:50.367Z,100.00
2023-01-15T18:55:27.858Z,100.00
2023-01-15T18:57:55.799Z,100.00
2023-01-15T19:00:25.279Z,100.00
2023-01-15T19:02:53.239Z,100.00
2023-01-15T19:05:22.313Z,100.00
2023-01-15T19:07:52.702Z,100.00
2023-01-15T19:10:25.474Z,100.00
2023-01-15T19:12:54.496Z,100.00
2023-01-15T19:15:40.025Z,100.00
2023-01-15T19:18:28.811Z,100.00
2023-01-15T19:21:00.278Z,100.00
2023-01-15T19:23:28.704Z,100.00
2023-01-15T19:25:56.564Z,100.00
2023-01-15T19:28:26.280Z,100.00
2023-01-15T19:31:12.066Z,100.00
2023-01-15T19:33:40.283Z,100.00
2023-01-15T19:36:09.627Z,100.00
2023-01-15T19:38:44.645Z,100.00
2023-01-15T19:41:31.942Z,100.00
2023-01-15T19:44:17.842Z,100.00
2023-01-15T19:47:08.009Z,100.00
2023-01-15T19:49:56.397Z,100.00
2023-01-15T19:52:36.613Z,100.00
2023-01-15T19:55:07.971Z,100.00
2023-01-15T19:57:35.975Z,100.00
2023-01-15T20:00:04.768Z,100.00
2023-01-15T20:02:33.970Z,100.00
2023-01-15T20:05:07.590Z,100.00
2023-01-15T20:07:35.106Z,100.00
2023-01-15T20:10:05.997Z,100.00
2023-01-15T20:12:53.030Z,100.00
2023-01-15T20:15:33.670Z,100.00
2023-01-15T20:18:00.981Z,100.00
2023-01-15T20:20:33.080Z,100.00
2023-01-15T20:23:00.883Z,100.00
2023-01-15T20:25:30.148Z,100.00
2023-01-15T20:28:08.946Z,100.00
2023-01-15T20:30:36.848Z,100.00
2023-01-15T20:33:06.561Z,100.00
2023-01-15T20:36:04.069Z,100.00
2023-01-15T20:38:37.004Z,100.00
2023-01-15T20:41:33.857Z,100.00
2023-01-15T20:44:27.572Z,100.00
2023-01-15T20:46:55.797Z,100.00
2023-01-15T20:49:27.867Z,100.00
2023-01-15T20:52:05.928Z,100.00
2023-01-15T20:54:39.829Z,100.00
2023-01-15T20:59:58.297Z,100.00
2023-01-15T21:02:27.465Z,100.00
2023-01-15T21:04:56.134Z,100.00
2023-01-15T21:07:26.376Z,100.00
2023-01-15T21:09:54.718Z,100.00
2023-01-15T21:12:23.287Z,100.00
2023-01-15T21:14:51.992Z,100.00
2023-01-15T21:17:20.078Z,100.00
2023-01-15T21:19:47.878Z,100.00
2023-01-15T21:22:17.023Z,100.00
2023-01-15T21:24:44.406Z,100.00
2023-01-15T21:27:14.645Z,100.00
2023-01-15T21:29:41.968Z,100.00
2023-01-15T21:32:09.680Z,100.00
2023-01-15T21:34:37.681Z,100.00
2023-01-15T21:37:06.628Z,100.00
2023-01-15T21:39:39.402Z,100.00
2023-01-15T21:42:41.087Z,100.00
2023-01-15T21:45:34.335Z,100.00
2023-01-15T21:48:00.745Z,100.00
2023-01-15T21:50:30.860Z,100.00
2023-01-15T21:52:58.585Z,100.00
2023-01-15T21:55:33.787Z,100.00
2023-01-15T21:58:08.657Z,100.00
2023-01-15T22:00:37.710Z,100.00
2023-01-15T22:03:08.791Z,100.00
2023-01-15T22:05:38.824Z,100.00
2023-01-15T22:08:06.299Z,100.00
2023-01-15T22:10:36.345Z,100.00
2023-01-15T22:13:04.850Z,100.00
2023-01-15T22:15:33.966Z,100.00
2023-01-15T22:18:11.727Z,100.00
2023-01-15T22:20:39.987Z,100.00
2023-01-15T22:23:08.181Z,100.00
2023-01-15T22:25:43.407Z,100.00
2023-01-15T22:28:16.569Z,100.00
2023-01-15T22:30:47.086Z,100.00
2023-01-15T22:33:15.291Z,100.00
2023-01-15T22:35:45.018Z,100.00
2023-01-15T22:41:16.541Z,100.00
2023-01-15T22:43:44.127Z,100.00
2023-01-15T22:46:12.753Z,100.00
2023-01-15T22:48:54.126Z,100.00
2023-01-15T22:51:23.928Z,100.00
2023-01-15T22:54:05.201Z,100.00
2023-01-15T22:56:33.776Z,100.00
2023-01-15T22:59:07.763Z,100.00
2023-01-15T23:01:38.752Z,100.00
2023-01-15T23:04:18.600Z,100.00
2023-01-15T23:06:51.425Z,100.00
2023-01-15T23:09:26.520Z,100.00
2023-01-15T23:12:20.157Z,100.00
2023-01-15T23:18:09.747Z,100.00
2023-01-15T23:21:12.561Z,100.00
2023-01-15T23:23:40.232Z,100.00
2023-01-15T23:26:23.203Z,100.00
2023-01-15T23:28:53.138Z,100.00
2023-01-15T23:31:42.172Z,100.00
2023-01-15T23:34:12.885Z,100.00
2023-01-15T23:36:46.215Z,100.00
2023-01-15T23:39:42.934Z,100.00
2023-01-15T23:42:29.780Z,100.00
2023-01-15T23:45:22.650Z,100.00
2023-01-15T23:47:53.346Z,100.00
2023-01-15T23:50:22.650Z,100.00
2023-01-15T23:52:57.257Z,100.00
2023-01-15T23:55:25.502Z,100.00
2023-01-15T23:57:55.013Z,100.00
